Terminal Aerodrome Forecast
Issued by NWS

Home | Current Version | Previous Version | Graphics & Text | Print | Product List | Glossary On
Versions: 1 2 3 4 5 6 7 8 9 10 11 12 13 14 15 16 17 18 19 20 21 22 23 24 25 26 27 28 29 30 31
500
FTUS43 KABR 160125 AAA
TAFPIR
TAF AMD
KPIR 160125Z 1601/1624 15013KT P6SM -RA FEW050 BKN100
     FM160600 VRB03KT 5SM BR VCTS OVC025CB
     FM161000 32007KT P6SM OVC015
     FM161600 34013KT P6SM BKN035=

USA.gov is the U.S. government's official web portal to all federal, state and local government web resources and services.